sensor_id;sensor_type;location;lat;lon;timestamp;pressure;altitude;pressure_sealevel;temperature;humidity
58622;BME280;44389;51.578;5.456;2022-10-28T00:00:17;101645.50;;;12.75;100.00
58622;BME280;44389;51.578;5.456;2022-10-28T00:02:42;101650.47;;;12.69;100.00
58622;BME280;44389;51.578;5.456;2022-10-28T00:05:08;101648.78;;;12.70;100.00
58622;BME280;44389;51.578;5.456;2022-10-28T00:07:33;101654.72;;;12.67;100.00
58622;BME280;44389;51.578;5.456;2022-10-28T00:09:58;101645.47;;;12.74;100.00
58622;BME280;44389;51.578;5.456;2022-10-28T00:12:24;101645.47;;;12.74;100.00
58622;BME280;44389;51.578;5.456;2022-10-28T00:14:49;101644.44;;;12.68;100.00
58622;BME280;44389;51.578;5.456;2022-10-28T00:17:14;101640.81;;;12.63;100.00
58622;BME280;44389;51.578;5.456;2022-10-28T00:19:39;101650.28;;;12.63;100.00
58622;BME280;44389;51.578;5.456;2022-10-28T00:22:05;101645.66;;;12.54;100.00
58622;BME280;44389;51.578;5.456;2022-10-28T00:24:30;101651.63;;;12.51;100.00
58622;BME280;44389;51.578;5.456;2022-10-28T00:26:55;101643.81;;;12.50;100.00
58622;BME280;44389;51.578;5.456;2022-10-28T00:29:20;101645.28;;;12.43;100.00
58622;BME280;44389;51.578;5.456;2022-10-28T00:31:46;101642.69;;;12.43;100.00
58622;BME280;44389;51.578;5.456;2022-10-28T00:34:14;101642.66;;;12.42;100.00
58622;BME280;44389;51.578;5.456;2022-10-28T00:36:42;101643.41;;;12.39;100.00
58622;BME280;44389;51.578;5.456;2022-10-28T00:41:39;101644.69;;;12.50;100.00
58622;BME280;44389;51.578;5.456;2022-10-28T00:47:44;101638.28;;;12.41;100.00
58622;BME280;44389;51.578;5.456;2022-10-28T00:50:22;101640.84;;;12.39;100.00
58622;BME280;44389;51.578;5.456;2022-10-28T00:52:54;101633.59;;;12.29;100.00
58622;BME280;44389;51.578;5.456;2022-10-28T00:55:20;101629.34;;;12.31;100.00
58622;BME280;44389;51.578;5.456;2022-10-28T00:57:47;101620.75;;;12.30;100.00
58622;BME280;44389;51.578;5.456;2022-10-28T01:00:13;101615.06;;;12.16;100.00
58622;BME280;44389;51.578;5.456;2022-10-28T01:02:44;101610.78;;;12.17;100.00
58622;BME280;44389;51.578;5.456;2022-10-28T01:05:12;101612.38;;;12.13;100.00
58622;BME280;44389;51.578;5.456;2022-10-28T01:07:39;101610.56;;;12.11;100.00
58622;BME280;44389;51.578;5.456;2022-10-28T01:10:05;101605.28;;;12.08;100.00
58622;BME280;44389;51.578;5.456;2022-10-28T01:12:42;101608.53;;;12.02;100.00
58622;BME280;44389;51.578;5.456;2022-10-28T01:15:19;101604.25;;;12.02;100.00
58622;BME280;44389;51.578;5.456;2022-10-28T01:17:57;101598.00;;;11.96;100.00
58622;BME280;44389;51.578;5.456;2022-10-28T01:20:45;101599.84;;;12.00;100.00
58622;BME280;44389;51.578;5.456;2022-10-28T01:29:06;101606.41;;;11.92;100.00
58622;BME280;44389;51.578;5.456;2022-10-28T01:31:53;101598.78;;;11.95;100.00
58622;BME280;44389;51.578;5.456;2022-10-28T01:35:18;101597.00;;;11.94;100.00
58622;BME280;44389;51.578;5.456;2022-10-28T01:37:36;101598.66;;;11.92;100.00
58622;BME280;44389;51.578;5.456;2022-10-28T01:40:28;101591.59;;;11.88;100.00
58622;BME280;44389;51.578;5.456;2022-10-28T01:45:40;101595.69;;;11.81;100.00
58622;BME280;44389;51.578;5.456;2022-10-28T01:48:25;101590.22;;;11.73;100.00
58622;BME280;44389;51.578;5.456;2022-10-28T01:51:07;101590.38;;;11.76;100.00
58622;BME280;44389;51.578;5.456;2022-10-28T01:53:37;101590.94;;;11.69;100.00
58622;BME280;44389;51.578;5.456;2022-10-28T01:56:09;101589.22;;;11.69;100.00
58622;BME280;44389;51.578;5.456;2022-10-28T01:58:37;101590.84;;;11.66;100.00
58622;BME280;44389;51.578;5.456;2022-10-28T02:01:05;101585.56;;;11.63;100.00
58622;BME280;44389;51.578;5.456;2022-10-28T02:03:31;101581.16;;;11.60;100.00
58622;BME280;44389;51.578;5.456;2022-10-28T02:06:00;101583.63;;;11.57;100.00
58622;BME280;44389;51.578;5.456;2022-10-28T02:16:46;101580.81;;;11.51;100.00
58622;BME280;44389;51.578;5.456;2022-10-28T02:19:32;101574.38;;;11.40;100.00
58622;BME280;44389;51.578;5.456;2022-10-28T02:22:21;101579.41;;;11.36;100.00
58622;BME280;44389;51.578;5.456;2022-10-28T02:27:19;101588.03;;;11.37;100.00
58622;BME280;44389;51.578;5.456;2022-10-28T02:30:14;101588.69;;;11.31;100.00
58622;BME280;44389;51.578;5.456;2022-10-28T02:32:43;101585.91;;;11.27;100.00
58622;BME280;44389;51.578;5.456;2022-10-28T02:35:15;101580.03;;;11.31;100.00
58622;BME280;44389;51.578;5.456;2022-10-28T02:37:44;101586.34;;;11.38;100.00
58622;BME280;44389;51.578;5.456;2022-10-28T02:40:13;101570.25;;;11.45;100.00
58622;BME280;44389;51.578;5.456;2022-10-28T02:42:45;101569.19;;;11.40;100.00
58622;BME280;44389;51.578;5.456;2022-10-28T02:45:16;101567.16;;;11.31;100.00
58622;BME280;44389;51.578;5.456;2022-10-28T02:47:49;101573.44;;;11.38;100.00
58622;BME280;44389;51.578;5.456;2022-10-28T02:50:19;101576.66;;;11.32;100.00
58622;BME280;44389;51.578;5.456;2022-10-28T02:52:49;101576.78;;;11.35;100.00
58622;BME280;44389;51.578;5.456;2022-10-28T02:55:17;101580.81;;;11.28;100.00
58622;BME280;44389;51.578;5.456;2022-10-28T02:57:44;101572.84;;;11.22;100.00
58622;BME280;44389;51.578;5.456;2022-10-28T03:00:16;101578.19;;;11.27;100.00
58622;BME280;44389;51.578;5.456;2022-10-28T03:02:42;101557.47;;;11.25;100.00
58622;BME280;44389;51.578;5.456;2022-10-28T03:05:07;101567.44;;;11.16;100.00
58622;BME280;44389;51.578;5.456;2022-10-28T03:07:33;101570.03;;;11.16;100.00
58622;BME280;44389;51.578;5.456;2022-10-28T03:09:58;101563.91;;;11.14;100.00
58622;BME280;44389;51.578;5.456;2022-10-28T03:12:23;101565.75;;;11.16;100.00
58622;BME280;44389;51.578;5.456;2022-10-28T03:14:49;101567.41;;;11.14;100.00
58622;BME280;44389;51.578;5.456;2022-10-28T03:17:14;101570.91;;;11.16;100.00
58622;BME280;44389;51.578;5.456;2022-10-28T03:19:39;101565.44;;;11.09;100.00
58622;BME280;44389;51.578;5.456;2022-10-28T03:22:04;101559.94;;;10.99;100.00
58622;BME280;44389;51.578;5.456;2022-10-28T03:24:30;101563.28;;;10.97;100.00
58622;BME280;44389;51.578;5.456;2022-10-28T03:26:55;101560.50;;;10.92;100.00
58622;BME280;44389;51.578;5.456;2022-10-28T03:29:20;101566.56;;;10.93;100.00
58622;BME280;44389;51.578;5.456;2022-10-28T03:31:46;101561.50;;;10.96;100.00
58622;BME280;44389;51.578;5.456;2022-10-28T03:34:11;101563.16;;;10.94;100.00
58622;BME280;44389;51.578;5.456;2022-10-28T03:36:36;101559.06;;;10.99;100.00
58622;BME280;44389;51.578;5.456;2022-10-28T03:39:02;101561.50;;;10.96;100.00
58622;BME280;44389;51.578;5.456;2022-10-28T03:41:27;101563.28;;;10.97;100.00
58622;BME280;44389;51.578;5.456;2022-10-28T03:43:52;101553.97;;;11.00;100.00
58622;BME280;44389;51.578;5.456;2022-10-28T03:46:17;101557.09;;;10.93;100.00
58622;BME280;44389;51.578;5.456;2022-10-28T03:48:43;101557.09;;;10.93;100.00
58622;BME280;44389;51.578;5.456;2022-10-28T03:51:08;101560.59;;;10.94;100.00
58622;BME280;44389;51.578;5.456;2022-10-28T03:53:33;101558.09;;;10.97;100.00
58622;BME280;44389;51.578;5.456;2022-10-28T03:56:00;101554.47;;;10.92;100.00
58622;BME280;44389;51.578;5.456;2022-10-28T03:58:26;101554.22;;;10.85;100.00
58622;BME280;44389;51.578;5.456;2022-10-28T04:00:52;101557.91;;;10.92;100.00
58622;BME280;44389;51.578;5.456;2022-10-28T04:03:19;101553.47;;;10.88;100.00
58622;BME280;44389;51.578;5.456;2022-10-28T04:05:45;101549.97;;;10.86;100.00
58622;BME280;44389;51.578;5.456;2022-10-28T04:08:12;101558.50;;;10.85;100.00
58622;BME280;44389;51.578;5.456;2022-10-28T04:10:37;101552.09;;;10.75;100.00
58622;BME280;44389;51.578;5.456;2022-10-28T04:13:04;101557.19;;;10.74;100.00
58622;BME280;44389;51.578;5.456;2022-10-28T04:15:30;101550.22;;;10.71;100.00
58622;BME280;44389;51.578;5.456;2022-10-28T04:17:55;101554.91;;;10.81;100.00
58622;BME280;44389;51.578;5.456;2022-10-28T04:20:21;101552.59;;;10.87;100.00
58622;BME280;44389;51.578;5.456;2022-10-28T04:22:46;101560.72;;;10.76;100.00
58622;BME280;44389;51.578;5.456;2022-10-28T04:25:11;101558.38;;;10.82;100.00
58622;BME280;44389;51.578;5.456;2022-10-28T04:27:37;101559.28;;;10.82;100.00
58622;BME280;44389;51.578;5.456;2022-10-28T04:30:02;101554.66;;;10.75;100.00
58622;BME280;44389;51.578;5.456;2022-10-28T04:32:28;101551.84;;;10.69;100.00
58622;BME280;44389;51.578;5.456;2022-10-28T04:34:53;101555.13;;;10.65;100.00
58622;BME280;44389;51.578;5.456;2022-10-28T04:37:19;101555.13;;;10.65;100.00
58622;BME280;44389;51.578;5.456;2022-10-28T04:39:44;101560.16;;;10.62;100.00
58622;BME280;44389;51.578;5.456;2022-10-28T04:42:09;101557.75;;;10.66;100.00
58622;BME280;44389;51.578;5.456;2022-10-28T04:44:35;101562.78;;;10.63;100.00
58622;BME280;44389;51.578;5.456;2022-10-28T04:47:00;101558.41;;;10.61;100.00
58622;BME280;44389;51.578;5.456;2022-10-28T04:49:25;101557.31;;;10.56;100.00
58622;BME280;44389;51.578;5.456;2022-10-28T04:51:50;101561.66;;;10.57;100.00
58622;BME280;44389;51.578;5.456;2022-10-28T04:54:16;101561.66;;;10.57;100.00
58622;BME280;44389;51.578;5.456;2022-10-28T04:56:41;101556.25;;;10.50;100.00
58622;BME280;44389;51.578;5.456;2022-10-28T04:59:06;101553.69;;;10.50;100.00
58622;BME280;44389;51.578;5.456;2022-10-28T05:01:32;101552.59;;;10.45;100.00
58622;BME280;44389;51.578;5.456;2022-10-28T05:03:57;101553.34;;;10.43;100.00
58622;BME280;44389;51.578;5.456;2022-10-28T05:06:22;101550.66;;;10.40;100.00
58622;BME280;44389;51.578;5.456;2022-10-28T05:08:47;101552.59;;;10.45;100.00
58622;BME280;44389;51.578;5.456;2022-10-28T05:11:13;101550.72;;;10.41;100.00
58622;BME280;44389;51.578;5.456;2022-10-28T05:13:38;101545.47;;;10.38;100.00
58622;BME280;44389;51.578;5.456;2022-10-28T05:16:04;101549.09;;;10.43;100.00
58622;BME280;44389;51.578;5.456;2022-10-28T05:18:29;101554.13;;;10.40;100.00
58622;BME280;44389;51.578;5.456;2022-10-28T05:20:54;101557.66;;;10.42;100.00
58622;BME280;44389;51.578;5.456;2022-10-28T05:23:21;101548.84;;;10.37;100.00
58622;BME280;44389;51.578;5.456;2022-10-28T05:25:47;101555.75;;;10.38;100.00
58622;BME280;44389;51.578;5.456;2022-10-28T05:28:13;101554.81;;;10.36;100.00
58622;BME280;44389;51.578;5.456;2022-10-28T05:30:38;101545.28;;;10.35;100.00
58622;BME280;44389;51.578;5.456;2022-10-28T05:33:03;101537.16;;;10.45;100.00
58622;BME280;44389;51.578;5.456;2022-10-28T05:35:29;101538.53;;;10.37;100.00
58622;BME280;44389;51.578;5.456;2022-10-28T05:37:54;101537.03;;;10.42;100.00
58622;BME280;44389;51.578;5.456;2022-10-28T05:40:20;101539.25;;;10.34;100.00
58622;BME280;44389;51.578;5.456;2022-10-28T05:42:45;101536.03;;;10.38;100.00
58622;BME280;44389;51.578;5.456;2022-10-28T05:45:11;101534.41;;;10.41;100.00
58622;BME280;44389;51.578;5.456;2022-10-28T05:47:47;101542.78;;;10.36;100.00
58622;BME280;44389;51.578;5.456;2022-10-28T05:50:15;101547.75;;;10.32;100.00
58622;BME280;44389;51.578;5.456;2022-10-28T05:52:45;101552.84;;;10.30;100.00
58622;BME280;44389;51.578;5.456;2022-10-28T05:55:11;101546.78;;;10.30;100.00
58622;BME280;44389;51.578;5.456;2022-10-28T05:57:36;101541.63;;;10.30;100.00
58622;BME280;44389;51.578;5.456;2022-10-28T06:00:02;101536.34;;;10.27;100.00
58622;BME280;44389;51.578;5.456;2022-10-28T06:02:28;101542.38;;;10.27;100.00
58622;BME280;44389;51.578;5.456;2022-10-28T06:04:53;101543.28;;;10.28;100.00
58622;BME280;44389;51.578;5.456;2022-10-28T06:07:18;101537.16;;;10.26;100.00
58622;BME280;44389;51.578;5.456;2022-10-28T06:09:44;101546.34;;;10.19;100.00
58622;BME280;44389;51.578;5.456;2022-10-28T06:12:09;101551.81;;;10.27;100.00
58622;BME280;44389;51.578;5.456;2022-10-28T06:14:34;101547.94;;;10.36;100.00
58622;BME280;44389;51.578;5.456;2022-10-28T06:16:59;101552.50;;;10.42;100.00
58622;BME280;44389;51.578;5.456;2022-10-28T06:19:25;101549.34;;;10.49;100.00
58622;BME280;44389;51.578;5.456;2022-10-28T06:21:50;101553.00;;;10.35;100.00
58622;BME280;44389;51.578;5.456;2022-10-28T06:24:15;101560.28;;;10.44;100.00
58622;BME280;44389;51.578;5.456;2022-10-28T06:26:42;101550.31;;;10.32;100.00
58622;BME280;44389;51.578;5.456;2022-10-28T06:29:09;101558.84;;;10.31;100.00
58622;BME280;44389;51.578;5.456;2022-10-28T06:31:38;101553.00;;;10.35;100.00
58622;BME280;44389;51.578;5.456;2022-10-28T06:34:03;101554.00;;;10.37;100.00
58622;BME280;44389;51.578;5.456;2022-10-28T06:36:29;101554.66;;;10.33;100.00
58622;BME280;44389;51.578;5.456;2022-10-28T06:38:55;101561.50;;;10.32;100.00
58622;BME280;44389;51.578;5.456;2022-10-28T06:41:20;101552.44;;;10.41;100.00
58622;BME280;44389;51.578;5.456;2022-10-28T06:43:45;101554.13;;;10.40;100.00
58622;BME280;44389;51.578;5.456;2022-10-28T06:46:12;101548.25;;;10.44;100.00
58622;BME280;44389;51.578;5.456;2022-10-28T06:48:37;101551.03;;;10.49;100.00
58622;BME280;44389;51.578;5.456;2022-10-28T06:51:02;101554.56;;;10.51;100.00
58622;BME280;44389;51.578;5.456;2022-10-28T06:53:28;101549.69;;;10.59;100.00
58622;BME280;44389;51.578;5.456;2022-10-28T06:55:54;101546.69;;;10.69;100.00
58622;BME280;44389;51.578;5.456;2022-10-28T06:58:20;101546.88;;;10.74;100.00
58622;BME280;44389;51.578;5.456;2022-10-28T07:00:46;101547.59;;;10.69;100.00
58622;BME280;44389;51.578;5.456;2022-10-28T07:03:11;101555.47;;;10.74;100.00
58622;BME280;44389;51.578;5.456;2022-10-28T07:05:37;101552.34;;;10.81;100.00
58622;BME280;44389;51.578;5.456;2022-10-28T07:08:02;101553.41;;;10.86;100.00
58622;BME280;44389;51.578;5.456;2022-10-28T07:10:28;101555.53;;;10.97;100.00
58622;BME280;44389;51.578;5.456;2022-10-28T07:12:53;101556.94;;;11.11;100.00
58622;BME280;44389;51.578;5.456;2022-10-28T07:15:18;101560.63;;;11.18;100.00
58622;BME280;44389;51.578;5.456;2022-10-28T07:17:44;101559.78;;;11.40;100.00
58622;BME280;44389;51.578;5.456;2022-10-28T07:20:15;101554.81;;;11.46;100.00
58622;BME280;44389;51.578;5.456;2022-10-28T07:22:40;101554.47;;;11.60;100.00
58622;BME280;44389;51.578;5.456;2022-10-28T07:25:06;101553.75;;;11.64;100.00
58622;BME280;44389;51.578;5.456;2022-10-28T07:27:31;101562.88;;;11.78;100.00
58622;BME280;44389;51.578;5.456;2022-10-28T07:29:56;101567.78;;;11.95;100.00
58622;BME280;44389;51.578;5.456;2022-10-28T07:32:22;101563.78;;;12.03;100.00
58622;BME280;44389;51.578;5.456;2022-10-28T07:34:47;101568.06;;;12.27;100.00
58622;BME280;44389;51.578;5.456;2022-10-28T07:37:12;101575.47;;;12.43;100.00
58622;BME280;44389;51.578;5.456;2022-10-28T07:39:37;101567.38;;;12.58;100.00
58622;BME280;44389;51.578;5.456;2022-10-28T07:42:03;101567.16;;;12.79;100.00
58622;BME280;44389;51.578;5.456;2022-10-28T07:44:28;101567.78;;;12.98;100.00
58622;BME280;44389;51.578;5.456;2022-10-28T07:46:53;101570.91;;;13.16;100.00
58622;BME280;44389;51.578;5.456;2022-10-28T07:49:19;101563.19;;;13.45;100.00
58622;BME280;44389;51.578;5.456;2022-10-28T07:51:44;101566.31;;;13.64;100.00
58622;BME280;44389;51.578;5.456;2022-10-28T07:54:10;101553.03;;;13.83;100.00
58622;BME280;44389;51.578;5.456;2022-10-28T07:56:35;101556.13;;;14.02;100.00
58622;BME280;44389;51.578;5.456;2022-10-28T07:59:00;101547.03;;;14.18;100.00
58622;BME280;44389;51.578;5.456;2022-10-28T08:01:25;101537.06;;;14.33;100.00
58622;BME280;44389;51.578;5.456;2022-10-28T08:03:51;101551.28;;;14.49;100.00
58622;BME280;44389;51.578;5.456;2022-10-28T08:06:18;101549.97;;;14.65;100.00
58622;BME280;44389;51.578;5.456;2022-10-28T08:08:46;101564.25;;;14.85;100.00
58622;BME280;44389;51.578;5.456;2022-10-28T08:11:15;101566.03;;;14.87;100.00
58622;BME280;44389;51.578;5.456;2022-10-28T08:13:42;101555.50;;;15.19;100.00
58622;BME280;44389;51.578;5.456;2022-10-28T08:16:08;101556.75;;;15.35;100.00
58622;BME280;44389;51.578;5.456;2022-10-28T08:18:34;101563.94;;;15.48;100.00
58622;BME280;44389;51.578;5.456;2022-10-28T08:21:00;101566.66;;;15.55;100.00
58622;BME280;44389;51.578;5.456;2022-10-28T08:23:27;101572.88;;;15.63;100.00
58622;BME280;44389;51.578;5.456;2022-10-28T08:25:52;101579.03;;;15.68;100.00
58622;BME280;44389;51.578;5.456;2022-10-28T08:28:18;101586.94;;;15.73;100.00
58622;BME280;44389;51.578;5.456;2022-10-28T08:30:44;101586.19;;;15.78;100.00
58622;BME280;44389;51.578;5.456;2022-10-28T08:33:10;101587.94;;;15.79;100.00
58622;BME280;44389;51.578;5.456;2022-10-28T08:35:36;101581.09;;;15.82;100.00
58622;BME280;44389;51.578;5.456;2022-10-28T08:38:02;101583.75;;;15.85;100.00
58622;BME280;44389;51.578;5.456;2022-10-28T08:40:36;101577.81;;;15.92;100.00
58622;BME280;44389;51.578;5.456;2022-10-28T08:46:20;101587.09;;;16.25;100.00
58622;BME280;44389;51.578;5.456;2022-10-28T08:48:51;101573.53;;;16.43;100.00
58622;BME280;44389;51.578;5.456;2022-10-28T08:51:21;101573.81;;;16.60;100.00
58622;BME280;44389;51.578;5.456;2022-10-28T08:54:03;101566.38;;;16.85;100.00
58622;BME280;44389;51.578;5.456;2022-10-28T08:56:34;101562.53;;;17.15;100.00
58622;BME280;44389;51.578;5.456;2022-10-28T08:59:04;101572.47;;;17.45;95.44
58622;BME280;44389;51.578;5.456;2022-10-28T09:01:46;101573.59;;;17.67;95.54
58622;BME280;44389;51.578;5.456;2022-10-28T09:04:36;101576.38;;;17.80;95.50
58622;BME280;44389;51.578;5.456;2022-10-28T09:07:03;101580.78;;;17.87;92.84
58622;BME280;44389;51.578;5.456;2022-10-28T09:09:29;101585.19;;;17.92;92.56
58622;BME280;44389;51.578;5.456;2022-10-28T09:11:59;101582.69;;;18.00;90.38
58622;BME280;44389;51.578;5.456;2022-10-28T09:17:18;101578.59;;;18.24;89.18
58622;BME280;44389;51.578;5.456;2022-10-28T09:19:49;101592.59;;;18.32;87.56
58622;BME280;44389;51.578;5.456;2022-10-28T09:22:24;101580.59;;;18.56;89.09
58622;BME280;44389;51.578;5.456;2022-10-28T09:25:04;101588.66;;;18.84;86.95
58622;BME280;44389;51.578;5.456;2022-10-28T09:27:55;101588.00;;;19.11;88.23
58622;BME280;44389;51.578;5.456;2022-10-28T09:30:50;101585.56;;;19.47;84.79
58622;BME280;44389;51.578;5.456;2022-10-28T09:35:59;101580.41;;;19.68;81.34
58622;BME280;44389;51.578;5.456;2022-10-28T09:38:36;101589.09;;;19.61;81.39
58622;BME280;44389;51.578;5.456;2022-10-28T09:41:09;101596.00;;;19.44;80.88
58622;BME280;44389;51.578;5.456;2022-10-28T09:43:41;101600.31;;;19.32;81.87
58622;BME280;44389;51.578;5.456;2022-10-28T09:46:14;101602.91;;;19.29;81.32
58622;BME280;44389;51.578;5.456;2022-10-28T09:48:49;101596.91;;;19.47;81.62
58622;BME280;44389;51.578;5.456;2022-10-28T09:51:45;101597.00;;;19.77;80.78
58622;BME280;44389;51.578;5.456;2022-10-28T09:54:12;101589.25;;;19.97;77.11
58622;BME280;44389;51.578;5.456;2022-10-28T09:56:38;101598.88;;;20.07;76.86
58622;BME280;44389;51.578;5.456;2022-10-28T09:59:04;101600.66;;;20.23;75.52
58622;BME280;44389;51.578;5.456;2022-10-28T10:01:33;101596.31;;;20.49;75.36
58622;BME280;44389;51.578;5.456;2022-10-28T10:03:59;101599.81;;;20.66;73.72
58622;BME280;44389;51.578;5.456;2022-10-28T10:06:30;101598.97;;;20.75;72.07
58622;BME280;44389;51.578;5.456;2022-10-28T10:08:56;101598.06;;;20.88;72.11
58622;BME280;44389;51.578;5.456;2022-10-28T10:11:27;101591.94;;;21.05;71.54
58622;BME280;44389;51.578;5.456;2022-10-28T10:13:56;101591.09;;;20.92;70.86
58622;BME280;44389;51.578;5.456;2022-10-28T10:16:32;101593.69;;;20.94;70.18
58622;BME280;44389;51.578;5.456;2022-10-28T10:19:02;101587.56;;;21.09;69.30
58622;BME280;44389;51.578;5.456;2022-10-28T10:21:49;101599.78;;;21.19;71.99
58622;BME280;44389;51.578;5.456;2022-10-28T10:24:27;101589.28;;;21.13;69.92
58622;BME280;44389;51.578;5.456;2022-10-28T10:26:55;101584.00;;;21.30;69.09
58622;BME280;44389;51.578;5.456;2022-10-28T10:29:22;101585.72;;;21.38;67.13
58622;BME280;44389;51.578;5.456;2022-10-28T10:32:02;101598.81;;;21.40;67.87
58622;BME280;44389;51.578;5.456;2022-10-28T10:34:28;101590.09;;;21.41;67.57
58622;BME280;44389;51.578;5.456;2022-10-28T10:36:55;101587.47;;;21.30;67.80
58622;BME280;44389;51.578;5.456;2022-10-28T10:39:24;101578.75;;;21.25;67.03
58622;BME280;44389;51.578;5.456;2022-10-28T10:41:53;101581.34;;;21.39;67.30
58622;BME280;44389;51.578;5.456;2022-10-28T10:46:44;101569.09;;;21.55;67.04
58622;BME280;44389;51.578;5.456;2022-10-28T10:49:14;101575.16;;;21.65;66.18
58622;BME280;44389;51.578;5.456;2022-10-28T10:52:00;101567.16;;;21.86;66.11
58622;BME280;44389;51.578;5.456;2022-10-28T10:54:29;101559.25;;;21.94;64.88
58622;BME280;44389;51.578;5.456;2022-10-28T10:57:25;101560.94;;;22.04;66.18
58622;BME280;44389;51.578;5.456;2022-10-28T10:59:52;101564.44;;;22.07;64.85
58622;BME280;44389;51.578;5.456;2022-10-28T11:02:33;101578.31;;;22.21;64.71
58622;BME280;44389;51.578;5.456;2022-10-28T11:05:06;101577.31;;;22.41;62.54
58622;BME280;44389;51.578;5.456;2022-10-28T11:07:31;101576.47;;;22.35;62.01
58622;BME280;44389;51.578;5.456;2022-10-28T11:09:57;101570.91;;;22.74;61.67
58622;BME280;44389;51.578;5.456;2022-10-28T11:12:34;101577.09;;;22.68;61.80
58622;BME280;44389;51.578;5.456;2022-10-28T11:17:28;101567.50;;;22.63;59.09
58622;BME280;44389;51.578;5.456;2022-10-28T11:19:56;101555.47;;;22.37;60.08
58622;BME280;44389;51.578;5.456;2022-10-28T11:22:46;101556.41;;;22.24;62.73
58622;BME280;44389;51.578;5.456;2022-10-28T11:25:33;101541.66;;;22.09;63.44
58622;BME280;44389;51.578;5.456;2022-10-28T11:28:29;101550.50;;;21.92;63.00
58622;BME280;44389;51.578;5.456;2022-10-28T11:33:55;101548.88;;;21.76;63.96
58622;BME280;44389;51.578;5.456;2022-10-28T11:36:40;101551.53;;;21.69;63.92
58622;BME280;44389;51.578;5.456;2022-10-28T11:39:56;101555.88;;;21.74;63.31
58622;BME280;44389;51.578;5.456;2022-10-28T11:42:50;101565.44;;;21.82;64.45
58622;BME280;44389;51.578;5.456;2022-10-28T11:48:45;101571.53;;;21.89;63.42
58622;BME280;44389;51.578;5.456;2022-10-28T11:56:46;101557.63;;;21.75;63.03
58622;BME280;44389;51.578;5.456;2022-10-28T11:59:23;101568.97;;;21.80;63.41
58622;BME280;44389;51.578;5.456;2022-10-28T12:02:04;101565.41;;;21.89;63.88
58622;BME280;44389;51.578;5.456;2022-10-28T12:04:55;101570.63;;;21.92;63.15
58622;BME280;44389;51.578;5.456;2022-10-28T12:15:39;101590.88;;;21.69;61.96
58622;BME280;44389;51.578;5.456;2022-10-28T12:18:24;101580.31;;;21.79;63.60
58622;BME280;44389;51.578;5.456;2022-10-28T12:21:07;101584.66;;;21.84;63.23
58622;BME280;44389;51.578;5.456;2022-10-28T12:23:37;101572.38;;;21.93;62.99
58622;BME280;44389;51.578;5.456;2022-10-28T12:26:07;101579.41;;;21.83;62.41
58622;BME280;44389;51.578;5.456;2022-10-28T12:29:00;101583.72;;;21.99;63.93
58622;BME280;44389;51.578;5.456;2022-10-28T12:31:31;101591.63;;;21.96;61.53
58622;BME280;44389;51.578;5.456;2022-10-28T12:34:01;101595.09;;;21.98;62.52
58622;BME280;44389;51.578;5.456;2022-10-28T12:36:36;101589.84;;;22.01;63.11
58622;BME280;44389;51.578;5.456;2022-10-28T12:39:10;101592.38;;;22.08;63.01
58622;BME280;44389;51.578;5.456;2022-10-28T12:41:54;101583.66;;;22.09;63.55
58622;BME280;44389;51.578;5.456;2022-10-28T12:44:21;101593.38;;;21.90;62.96
58622;BME280;44389;51.578;5.456;2022-10-28T12:49:34;101594.34;;;21.71;63.85
58622;BME280;44389;51.578;5.456;2022-10-28T12:52:08;101596.16;;;21.59;64.04
58622;BME280;44389;51.578;5.456;2022-10-28T12:54:56;101590.94;;;21.48;64.73
58622;BME280;44389;51.578;5.456;2022-10-28T12:57:24;101597.09;;;21.37;64.62
58622;BME280;44389;51.578;5.456;2022-10-28T12:59:55;101591.88;;;21.28;64.53
58622;BME280;44389;51.578;5.456;2022-10-28T13:02:31;101598.88;;;21.20;65.72
58622;BME280;44389;51.578;5.456;2022-10-28T13:04:58;101605.88;;;21.13;66.06
58622;BME280;44389;51.578;5.456;2022-10-28T13:12:55;101622.50;;;20.95;67.64
58622;BME280;44389;51.578;5.456;2022-10-28T13:16:02;101610.28;;;20.91;68.20
58622;BME280;44389;51.578;5.456;2022-10-28T13:24:34;101619.88;;;20.61;69.17
58622;BME280;44389;51.578;5.456;2022-10-28T13:27:04;101630.34;;;20.53;69.41
58622;BME280;44389;51.578;5.456;2022-10-28T13:29:32;101629.47;;;20.50;70.11
58622;BME280;44389;51.578;5.456;2022-10-28T13:31:59;101632.09;;;20.47;69.84
58622;BME280;44389;51.578;5.456;2022-10-28T13:34:36;101631.22;;;20.51;70.57
58622;BME280;44389;51.578;5.456;2022-10-28T13:37:04;101632.09;;;20.51;70.41
58622;BME280;44389;51.578;5.456;2022-10-28T13:39:45;101625.13;;;20.61;70.38
58622;BME280;44389;51.578;5.456;2022-10-28T13:47:31;101653.97;;;20.86;69.99
58622;BME280;44389;51.578;5.456;2022-10-28T13:52:44;101659.22;;;20.92;69.33
58622;BME280;44389;51.578;5.456;2022-10-28T13:57:41;101650.50;;;20.84;69.22
58622;BME280;44389;51.578;5.456;2022-10-28T14:06:10;101674.94;;;20.83;69.46
58622;BME280;44389;51.578;5.456;2022-10-28T14:11:00;101673.19;;;20.88;69.81
58622;BME280;44389;51.578;5.456;2022-10-28T14:13:28;101672.31;;;20.92;68.65
58622;BME280;44389;51.578;5.456;2022-10-28T14:16:15;101671.44;;;20.96;69.68
58622;BME280;44389;51.578;5.456;2022-10-28T14:18:56;101669.69;;;20.87;69.19
58622;BME280;44389;51.578;5.456;2022-10-28T14:21:24;101658.31;;;20.82;69.62
58622;BME280;44389;51.578;5.456;2022-10-28T14:24:08;101659.19;;;20.80;69.92
58622;BME280;44389;51.578;5.456;2022-10-28T14:29:46;101674.94;;;20.77;69.61
58622;BME280;44389;51.578;5.456;2022-10-28T14:34:58;101668.78;;;20.64;70.58